Upper Bern, Pennsylvania
Current Conditions -  °F | °C
As of 11:54 AM on Thursday 23 Oct 2014 (Local Time) from KRDG Reporting Station
Overcast Overcast  
Wind Chill: 54°   Ceiling: 2700
Heat Index: 54°   Visibility: 10mi
Dew Point: 43°   Wind: 22mph
Humidity: 66%   Direction: 340°NNW
Pressure: 29.82"   Gusts: 29mph
Location:  40.4645°N, 76.1345°W
Report Text: KRDG 231554Z 34019G25KT 10SM BKN027 OVC048 12/06 A2982 RMK AO2 RAE07 SLP103 P0000 T01220061
Loading
Personal Weather Stations






























Interactive Weather Map
Tropical Storm Tracking
New forecast layout! Learn more

10-Day Weather Forecast

Advertisements
Track Severe Weather on mobile